Time,TemperatureF,DewpointF,PressureIn,WindDirection,WindDirectionDegrees,WindSpeedMPH,WindSpeedGustMPH,Humidity,HourlyPrecipIn,Conditions,Clouds,dailyrainin,SoftwareType,DateUTC
2013-10-10 00:22:00,-999.0,-99.9,-100.00,North,-999,3.0,5.0,62,-99.99,,,-99.99,,2013-10-10 06:22:00,
2013-10-10 02:22:00,-999.0,-99.9,-100.00,North,-999,3.0,6.0,65,-99.99,,,-99.99,,2013-10-10 08:22:00,
2013-10-10 04:00:00,57.0,-99.9,-100.00,North,-999,4.0,6.0,59,-99.99,,,-99.99,,2013-10-10 10:00:00,
2013-10-10 04:23:00,-999.0,-99.9,-100.00,North,-999,4.0,6.0,59,-99.99,,,-99.99,,2013-10-10 10:23:00,
2013-10-10 04:53:00,57.0,-99.9,-100.00,North,-999,4.0,6.0,59,-99.99,,,-99.99,,2013-10-10 10:53:00,
2013-10-10 10:00:00,69.0,-99.9,-100.00,North,-999,8.0,12.0,44,-99.99,,,-99.99,,2013-10-10 16:00:00,
2013-10-10 10:23:00,-999.0,-99.9,-100.00,North,-999,8.0,12.0,44,-99.99,,,-99.99,,2013-10-10 16:23:00,
2013-10-10 10:42:00,69.0,-99.9,-100.00,North,-999,8.0,12.0,44,-99.99,,,-99.99,,2013-10-10 16:42:00,
2013-10-10 10:53:00,69.0,-99.9,-100.00,North,-999,8.0,12.0,44,-99.99,,,-99.99,,2013-10-10 16:53:00,
2013-10-10 11:00:00,75.0,-99.9,-100.00,North,-999,11.0,17.0,33,-99.99,,,-99.99,,2013-10-10 17:00:00,
2013-10-10 11:42:00,75.0,-99.9,-100.00,North,-999,11.0,17.0,33,-99.99,,,-99.99,,2013-10-10 17:42:00,
2013-10-10 11:53:00,75.0,-99.9,-100.00,North,-999,11.0,17.0,33,-99.99,,,-99.99,,2013-10-10 17:53:00,
2013-10-10 12:00:00,76.0,-99.9,-100.00,North,-999,17.0,28.0,24,-99.99,,,-99.99,,2013-10-10 18:00:00,
2013-10-10 12:42:00,76.0,-99.9,-100.00,North,-999,17.0,28.0,24,-99.99,,,-99.99,,2013-10-10 18:42:00,
2013-10-10 12:52:00,76.0,-99.9,-100.00,North,-999,17.0,28.0,24,-99.99,,,-99.99,,2013-10-10 18:52:00,
2013-10-10 13:00:00,78.0,-99.9,-100.00,North,-999,22.0,33.0,18,-99.99,,,-99.99,,2013-10-10 19:00:00,
2013-10-10 13:42:00,78.0,-99.9,-100.00,North,-999,22.0,33.0,18,-99.99,,,-99.99,,2013-10-10 19:42:00,
2013-10-10 13:53:00,78.0,-99.9,-100.00,North,-999,22.0,33.0,18,-99.99,,,-99.99,,2013-10-10 19:53:00,
2013-10-10 14:00:00,77.0,-99.9,-100.00,North,-999,25.0,37.0,18,-99.99,,,-99.99,,2013-10-10 20:00:00,
2013-10-10 14:22:00,-999.0,-99.9,-100.00,North,-999,25.0,37.0,18,-99.99,,,-99.99,,2013-10-10 20:22:00,
2013-10-10 14:42:00,77.0,-99.9,-100.00,North,-999,25.0,37.0,18,-99.99,,,-99.99,,2013-10-10 20:42:00,
2013-10-10 14:52:00,77.0,-99.9,-100.00,North,-999,25.0,37.0,18,-99.99,,,-99.99,,2013-10-10 20:52:00,
2013-10-10 15:00:00,70.0,-99.9,-100.00,North,-999,21.0,32.0,37,-99.99,,,-99.99,,2013-10-10 21:00:00,
2013-10-10 15:22:00,-999.0,-99.9,-100.00,North,-999,21.0,32.0,37,-99.99,,,-99.99,,2013-10-10 21:22:00,
2013-10-10 15:44:00,70.0,-99.9,-100.00,North,-999,21.0,32.0,37,-99.99,,,-99.99,,2013-10-10 21:44:00,
2013-10-10 15:54:00,70.0,-99.9,-100.00,North,-999,21.0,32.0,37,-99.99,,,-99.99,,2013-10-10 21:54:00,
2013-10-10 16:00:00,75.0,-99.9,-100.00,North,-999,15.0,23.0,28,-99.99,,,-99.99,,2013-10-10 22:00:00,
2013-10-10 16:24:00,-999.0,-99.9,-100.00,North,-999,15.0,23.0,28,-99.99,,,-99.99,,2013-10-10 22:24:00,
2013-10-10 16:43:00,75.0,-99.9,-100.00,North,-999,15.0,23.0,28,-99.99,,,-99.99,,2013-10-10 22:43:00,
2013-10-10 16:53:00,75.0,-99.9,-100.00,North,-999,15.0,23.0,28,-99.99,,,-99.99,,2013-10-10 22:53:00,
2013-10-10 17:00:00,74.0,-99.9,-100.00,North,-999,14.0,23.0,29,-99.99,,,-99.99,,2013-10-10 23:00:00,
2013-10-10 17:23:00,-999.0,-99.9,-100.00,North,-999,14.0,23.0,29,-99.99,,,-99.99,,2013-10-10 23:23:00,
2013-10-10 17:43:00,74.0,-99.9,-100.00,North,-999,14.0,23.0,29,-99.99,,,-99.99,,2013-10-10 23:43:00,
2013-10-10 17:53:00,74.0,-99.9,-100.00,North,-999,14.0,23.0,29,-99.99,,,-99.99,,2013-10-10 23:53:00,
2013-10-10 18:00:00,72.0,-99.9,-100.00,North,-999,11.0,18.0,26,-99.99,,,-99.99,,2013-10-11 00:00:00,
2013-10-10 18:42:00,72.0,-99.9,-100.00,North,-999,11.0,18.0,26,-99.99,,,-99.99,,2013-10-11 00:42:00,
2013-10-10 18:52:00,72.0,-99.9,-100.00,North,-999,11.0,18.0,26,-99.99,,,-99.99,,2013-10-11 00:52:00,
2013-10-10 19:00:00,67.0,-99.9,-100.00,North,-999,8.0,13.0,23,-99.99,,,-99.99,,2013-10-11 01:00:00,
2013-10-10 19:42:00,67.0,-99.9,-100.00,North,-999,8.0,13.0,23,-99.99,,,-99.99,,2013-10-11 01:42:00,
2013-10-10 19:52:00,67.0,-99.9,-100.00,North,-999,8.0,13.0,23,-99.99,,,-99.99,,2013-10-11 01:52:00,
2013-10-10 20:00:00,62.0,-99.9,-100.00,North,-999,9.0,16.0,29,-99.99,,,-99.99,,2013-10-11 02:00:00,
2013-10-10 20:42:00,62.0,-99.9,-100.00,North,-999,9.0,16.0,29,-99.99,,,-99.99,,2013-10-11 02:42:00,
2013-10-10 20:52:00,62.0,-99.9,-100.00,North,-999,9.0,16.0,29,-99.99,,,-99.99,,2013-10-11 02:52:00,
2013-10-10 21:00:00,58.0,-99.9,-100.00,North,-999,3.0,8.0,34,-99.99,,,-99.99,,2013-10-11 03:00:00,
2013-10-10 21:23:00,-999.0,-99.9,-100.00,North,-999,3.0,8.0,34,-99.99,,,-99.99,,2013-10-11 03:23:00,
2013-10-10 21:45:00,58.0,-99.9,-100.00,North,-999,3.0,8.0,34,-99.99,,,-99.99,,2013-10-11 03:45:00,
2013-10-10 21:54:00,58.0,-99.9,-100.00,North,-999,3.0,8.0,34,-99.99,,,-99.99,,2013-10-11 03:54:00,
2013-10-10 22:00:00,57.0,-99.9,-100.00,North,-999,4.0,7.0,34,-99.99,,,-99.99,,2013-10-11 04:00:00,
2013-10-10 22:24:00,-999.0,-99.9,-100.00,North,-999,4.0,7.0,34,-99.99,,,-99.99,,2013-10-11 04:24:00,
2013-10-10 22:44:00,57.0,-99.9,-100.00,North,-999,4.0,7.0,34,-99.99,,,-99.99,,2013-10-11 04:44:00,
2013-10-10 22:53:00,57.0,-99.9,-100.00,North,-999,4.0,7.0,34,-99.99,,,-99.99,,2013-10-11 04:53:00,
2013-10-10 23:00:00,55.0,-99.9,-100.00,North,-999,4.0,8.0,42,-99.99,,,-99.99,,2013-10-11 05:00:00,
2013-10-10 23:23:00,-999.0,-99.9,-100.00,North,-999,4.0,8.0,42,-99.99,,,-99.99,,2013-10-11 05:23:00,
2013-10-10 23:43:00,55.0,-99.9,-100.00,North,-999,4.0,8.0,42,-99.99,,,-99.99,,2013-10-11 05:43:00,
2013-10-10 23:52:00,55.0,-99.9,-100.00,North,-999,4.0,8.0,42,-99.99,,,-99.99,,2013-10-11 05:52:00,